Airfield :
LOGIN :

Register | Disclaimer

   EN    FR    IT 

 










Legend :    VFR   Marginal VFR   IFR   Intensive IFR   Very Intensive IFR
Visi :
Ceiling :
>= 8 km
>= 3000ft
5 to 8 km
1000 to 3000 ft
1500m to 5 km
500 to 1000 ft
800 to 1500m
200 to 500 ft
< 800m
< 200 ft
Symbols :   Thunderstorms  Fog  Heavy snow  Heavy precipitations  Wind > 20 kt
SIGMETs :     Misc.  Thunderstorms  Icing  Turbulence  Mountain Waves  Volcanic Ashes






- Airport Elevation : 194 ft


EBCV - Chièvres

CURRENT METAR :
  • 311725Z AUTO 19007KT 9999 -RA OVC075/// 16/15 Q1010 BLU

EXPIRED METARs :
  • 311655Z AUTO 20007KT 9999 RA OVC059/// 15/14 Q1010 BLU
  • 311625Z AUTO 22006KT 9999 RA BKN031/// OVC066/// 16/14 Q1011 BLU
  • 311555Z AUTO 20004KT 9999 -RA BKN046/// BKN083/// 17/16 Q1010 BLU
  • 311455Z AUTO 25011KT 9999 FEW023/// BKN076/// 19/14 Q1010 BLU

Expired Forecast.



MET'MAP, your aeronautical weather chart ! - Copyright ORBIFLY December 2007 - Disclaimer

ORBIFLY MET'MAP TEAM :

Programming & Development : Alexandra Zaïnal
Concept & original design : Baudouin d'Aumeries
Assistance for programming : Marc-Olivier Méhu
Technical & hardware support : Manuel Goepfert

Contact : metmap@orbifly.com




SOURCES & CREDITS :

   NOAA